createdAt,value
2017-06-28T00:00:39.163Z,995.84
2017-06-28T00:01:49.389Z,995.84
2017-06-28T00:02:59.615Z,995.79
2017-06-28T00:04:08.958Z,995.78
2017-06-28T00:05:19.177Z,995.68
2017-06-28T00:06:28.779Z,995.62
2017-06-28T00:07:38.988Z,995.56
2017-06-28T00:08:49.209Z,995.57
2017-06-28T00:09:59.111Z,995.55
2017-06-28T00:11:09.016Z,995.53
2017-06-28T00:12:19.234Z,995.5
2017-06-28T00:13:29.137Z,995.48
2017-06-28T00:14:39.258Z,995.46
2017-06-28T00:15:48.861Z,995.46
2017-06-28T00:16:59.079Z,995.47
2017-06-28T00:18:09.007Z,995.42
2017-06-28T00:19:18.932Z,995.4
2017-06-28T00:20:28.856Z,995.42
2017-06-28T00:21:38.762Z,995.39
2017-06-28T00:22:48.982Z,995.36
2017-06-28T00:23:58.898Z,995.35
2017-06-28T00:25:09.111Z,995.35
2017-06-28T00:26:19.013Z,995.32
2017-06-28T00:27:29.226Z,995.3
2017-06-28T00:28:39.129Z,995.26
2017-06-28T00:29:49.340Z,995.28
2017-06-28T00:30:59.234Z,995.26
2017-06-28T00:32:09.146Z,995.3
2017-06-28T00:33:19.384Z,995.26
2017-06-28T00:34:29.587Z,995.28
2017-06-28T00:35:39.186Z,995.27
2017-06-28T00:36:49.415Z,995.28
2017-06-28T00:37:59.019Z,995.29
2017-06-28T00:39:09.238Z,995.31
2017-06-28T00:40:18.841Z,995.28
2017-06-28T00:41:29.061Z,995.3
2017-06-28T00:42:39.268Z,995.31
2017-06-28T00:43:49.170Z,995.28
2017-06-28T00:44:58.780Z,995.28
2017-06-28T00:46:08.685Z,995.22
2017-06-28T00:47:18.578Z,995.24
2017-06-28T00:48:28.510Z,995.22
2017-06-28T00:49:38.745Z,995.18
2017-06-28T00:50:48.350Z,995.18
2017-06-28T00:51:58.264Z,995.14
2017-06-28T00:53:07.863Z,995.11
2017-06-28T00:54:17.498Z,995.04
2017-06-28T00:55:27.125Z,995.03
2017-06-28T00:56:36.744Z,995.04
2017-06-28T00:57:46.963Z,995.03
2017-06-28T00:58:56.583Z,995.1
2017-06-28T01:00:06.489Z,995.1
2017-06-28T01:01:16.393Z,995.13
2017-06-28T01:02:26.603Z,995.13
2017-06-28T01:03:36.212Z,995.1
2017-06-28T01:04:46.127Z,995.12
2017-06-28T01:05:56.043Z,995.09
2017-06-28T01:07:05.342Z,995.08
2017-06-28T01:08:15.048Z,995.1
2017-06-28T01:09:24.951Z,995.09
2017-06-28T01:10:35.172Z,995.11
2017-06-28T01:11:45.075Z,995.14
2017-06-28T01:12:54.674Z,995.13
2017-06-28T01:14:04.582Z,995.07
2017-06-28T01:15:14.478Z,995.03
2017-06-28T01:16:24.402Z,994.95
2017-06-28T01:17:34.623Z,994.96
2017-06-28T01:19:54.716Z,994.94
2017-06-28T01:21:04.668Z,994.92
2017-06-28T01:22:14.907Z,994.98
2017-06-28T01:23:24.801Z,994.98
2017-06-28T01:24:34.408Z,994.96
2017-06-28T01:25:44.107Z,994.99
2017-06-28T01:26:54.006Z,995.01
2017-06-28T01:28:03.608Z,995.04
2017-06-28T01:29:13.591Z,994.99
2017-06-28T01:30:23.807Z,994.98
2017-06-28T01:31:33.238Z,994.95
2017-06-28T01:32:43.180Z,994.97
2017-06-28T01:33:53.418Z,994.95
2017-06-28T01:35:03.838Z,994.97
2017-06-28T01:36:13.138Z,994.93
2017-06-28T01:37:22.751Z,994.93
2017-06-28T01:38:32.661Z,994.93
2017-06-28T01:39:42.581Z,994.91
2017-06-28T01:40:52.194Z,994.89
2017-06-28T01:42:01.794Z,994.84
2017-06-28T01:43:11.697Z,994.86
2017-06-28T01:44:21.307Z,994.88
2017-06-28T01:45:31.518Z,994.87
2017-06-28T01:46:41.439Z,994.84
2017-06-28T01:47:51.049Z,994.81
2017-06-28T01:49:01.078Z,994.82
2017-06-28T01:50:10.990Z,994.81
2017-06-28T01:51:21.193Z,994.83
2017-06-28T01:52:30.167Z,994.8
2017-06-28T01:53:40.112Z,994.76
2017-06-28T01:54:50.176Z,994.72
2017-06-28T01:55:59.782Z,994.77
2017-06-28T01:57:09.708Z,994.72
2017-06-28T01:58:19.906Z,994.72
2017-06-28T01:59:30.183Z,994.7
2017-06-28T02:00:40.449Z,994.68
2017-06-28T02:01:50.034Z,994.64
2017-06-28T02:02:59.346Z,994.65
2017-06-28T02:04:09.258Z,994.63
2017-06-28T02:05:19.491Z,994.64
2017-06-28T02:06:29.545Z,994.64
2017-06-28T02:07:39.143Z,994.62
2017-06-28T02:08:48.745Z,994.57
2017-06-28T02:09:58.394Z,994.6
2017-06-28T02:11:08.007Z,994.56
2017-06-28T02:12:18.011Z,994.54
2017-06-28T02:13:27.618Z,994.48
2017-06-28T02:14:37.519Z,994.49
2017-06-28T02:15:47.120Z,994.48
2017-06-28T02:16:57.329Z,994.49
2017-06-28T02:18:07.287Z,994.52
2017-06-28T02:19:17.505Z,994.5
2017-06-28T02:20:26.840Z,994.44
2017-06-28T02:21:36.448Z,994.42
2017-06-28T02:22:46.651Z,994.39
2017-06-28T02:23:56.664Z,994.34
2017-06-28T02:25:06.596Z,994.3
2017-06-28T02:26:16.194Z,994.27
2017-06-28T02:27:26.399Z,994.27
2017-06-28T02:28:36.599Z,994.26
2017-06-28T02:29:46.316Z,994.23
2017-06-28T02:30:55.931Z,994.18
2017-06-28T02:32:05.845Z,994.17
2017-06-28T02:33:15.440Z,994.18
2017-06-28T02:34:25.048Z,994.16
2017-06-28T02:35:34.758Z,994.16
2017-06-28T02:36:44.970Z,994.15
2017-06-28T02:37:54.579Z,994.16
2017-06-28T02:39:04.181Z,994.15
2017-06-28T02:40:14.390Z,994.15
2017-06-28T02:41:24.399Z,994.12
2017-06-28T02:42:34.296Z,994.03
2017-06-28T02:43:44.533Z,994.09
2017-06-28T02:44:54.445Z,994.08
2017-06-28T02:46:04.058Z,994.1
2017-06-28T02:47:14.379Z,994.11
2017-06-28T02:48:24.596Z,994.12
2017-06-28T02:49:34.818Z,994.15
2017-06-28T02:50:44.741Z,994.06
2017-06-28T02:51:54.654Z,994.11
2017-06-28T02:53:04.623Z,994.05
2017-06-28T02:54:14.831Z,994.08
2017-06-28T02:55:24.437Z,994.1
2017-06-28T02:56:34.668Z,994.15
2017-06-28T02:57:44.586Z,994.15
2017-06-28T02:58:54.822Z,994.12
2017-06-28T03:00:05.145Z,994.12
2017-06-28T03:01:15.070Z,994.08
2017-06-28T03:02:24.728Z,994.09
2017-06-28T03:03:34.651Z,994.12
2017-06-28T03:04:44.879Z,994.12
2017-06-28T03:05:55.102Z,994.15
2017-06-28T03:07:05.323Z,994.11
2017-06-28T03:08:15.230Z,994.09
2017-06-28T03:09:24.840Z,994.03
2017-06-28T03:10:34.855Z,994
2017-06-28T03:11:43.835Z,993.95
2017-06-28T03:12:53.821Z,993.97
2017-06-28T03:14:03.739Z,993.9
2017-06-28T03:15:13.034Z,993.93
2017-06-28T03:16:22.377Z,993.94
2017-06-28T03:17:32.286Z,993.94
2017-06-28T03:18:42.200Z,993.99
2017-06-28T03:19:52.120Z,993.94
2017-06-28T03:21:01.727Z,993.93
2017-06-28T03:22:11.736Z,993.97
2017-06-28T03:23:21.937Z,993.99
2017-06-28T03:24:32.153Z,994
2017-06-28T03:25:41.470Z,994.01
2017-06-28T03:26:51.687Z,993.94
2017-06-28T03:28:01.595Z,993.95
2017-06-28T03:29:11.820Z,993.9
2017-06-28T03:30:21.733Z,993.95
2017-06-28T03:31:31.630Z,993.91
2017-06-28T03:32:41.240Z,993.89
2017-06-28T03:33:51.760Z,993.81
2017-06-28T03:35:01.062Z,993.79
2017-06-28T03:36:10.057Z,993.85
2017-06-28T03:37:19.353Z,993.83
2017-06-28T03:38:29.265Z,993.79
2017-06-28T03:39:39.327Z,993.83
2017-06-28T03:40:49.236Z,993.9
2017-06-28T03:41:58.540Z,993.89
2017-06-28T03:43:08.762Z,993.92
2017-06-28T03:44:18.982Z,993.96
2017-06-28T03:45:28.931Z,993.99
2017-06-28T03:46:38.523Z,994
2017-06-28T03:47:48.141Z,994.07
2017-06-28T03:48:58.376Z,994.06
2017-06-28T03:50:08.614Z,994.09
2017-06-28T03:51:18.268Z,994.14
2017-06-28T03:52:27.579Z,994.16
2017-06-28T03:53:37.801Z,994.18
2017-06-28T03:54:47.708Z,994.12
2017-06-28T03:55:57.613Z,994.12
2017-06-28T03:57:07.510Z,994.15
2017-06-28T03:58:16.808Z,994.15
2017-06-28T03:59:27.032Z,994.15
2017-06-28T04:00:36.938Z,994.17
2017-06-28T04:01:46.856Z,994.12
2017-06-28T04:02:56.513Z,994.1
2017-06-28T04:04:06.729Z,994.23
2017-06-28T04:05:16.930Z,994.25
2017-06-28T04:06:27.148Z,994.25
2017-06-28T04:07:36.755Z,994.38
2017-06-28T04:08:47.098Z,994.37
2017-06-28T04:09:56.687Z,994.41
2017-06-28T04:11:06.296Z,994.39
2017-06-28T04:12:16.513Z,994.39
2017-06-28T04:13:26.111Z,994.44
2017-06-28T04:14:36.369Z,994.46
2017-06-28T04:15:45.662Z,994.41
2017-06-28T04:16:55.889Z,994.36
2017-06-28T04:18:05.502Z,994.32
2017-06-28T04:19:15.731Z,994.29
2017-06-28T04:20:25.120Z,994.24
2017-06-28T04:21:35.333Z,994.23
2017-06-28T04:22:44.938Z,994.2
2017-06-28T04:23:54.530Z,994.19
2017-06-28T04:25:04.437Z,994.19
2017-06-28T04:26:14.639Z,994.21
2017-06-28T04:27:24.248Z,994.18
2017-06-28T04:28:33.851Z,994.22
2017-06-28T04:29:43.154Z,994.24
2017-06-28T04:30:53.366Z,994.23
2017-06-28T04:32:03.072Z,994.27
2017-06-28T04:33:12.988Z,994.31
2017-06-28T04:34:22.588Z,994.44
2017-06-28T04:35:33.184Z,994.41
2017-06-28T04:36:42.772Z,994.41
2017-06-28T04:37:52.691Z,994.39
2017-06-28T04:39:02.633Z,994.38
2017-06-28T04:40:12.533Z,994.34
2017-06-28T04:41:22.443Z,994.33
2017-06-28T04:42:32.653Z,994.23
2017-06-28T04:43:42.308Z,994.19
2017-06-28T04:44:52.225Z,994.16
2017-06-28T04:46:02.139Z,994.12
2017-06-28T04:47:11.742Z,994.09
2017-06-28T04:48:21.962Z,994.04
2017-06-28T04:49:31.966Z,994.02
2017-06-28T04:50:42.170Z,994.05
2017-06-28T04:51:52.381Z,994.08
2017-06-28T04:53:01.981Z,994.05
2017-06-28T04:54:11.584Z,993.98
2017-06-28T04:55:21.602Z,994.04
2017-06-28T04:56:31.518Z,994
2017-06-28T04:57:41.417Z,993.99
2017-06-28T04:58:51.342Z,993.92
2017-06-28T05:00:01.553Z,993.97
2017-06-28T05:01:11.548Z,993.95
2017-06-28T05:02:21.769Z,993.92
2017-06-28T05:03:31.665Z,993.91
2017-06-28T05:04:40.983Z,993.88
2017-06-28T05:05:50.900Z,993.87
2017-06-28T05:07:01.230Z,993.89
2017-06-28T05:08:10.853Z,993.85
2017-06-28T05:09:20.455Z,993.86
2017-06-28T05:10:30.374Z,993.9
2017-06-28T05:11:39.982Z,993.88
2017-06-28T05:12:50.313Z,993.88
2017-06-28T05:14:00.569Z,993.94
2017-06-28T05:15:10.525Z,993.93
2017-06-28T05:16:20.762Z,993.9
2017-06-28T05:17:30.695Z,993.84
2017-06-28T05:18:40.709Z,993.83
2017-06-28T05:19:50.618Z,993.86
2017-06-28T05:21:00.547Z,993.9
2017-06-28T05:22:10.523Z,993.88
2017-06-28T05:23:20.137Z,993.88
2017-06-28T05:24:30.340Z,993.88
2017-06-28T05:25:40.063Z,993.9
2017-06-28T05:26:50.312Z,993.91
2017-06-28T05:28:00.542Z,993.95
2017-06-28T05:29:10.497Z,993.96
2017-06-28T05:30:20.722Z,993.95
2017-06-28T05:31:30.970Z,993.92
2017-06-28T05:32:40.574Z,993.97
2017-06-28T05:33:50.820Z,993.94
2017-06-28T05:35:01.446Z,993.95
2017-06-28T05:36:12.040Z,993.94
2017-06-28T05:37:21.957Z,993.91
2017-06-28T05:38:31.552Z,993.92
2017-06-28T05:39:41.183Z,993.9
2017-06-28T05:40:51.148Z,993.91
2017-06-28T05:42:01.086Z,993.92
2017-06-28T05:43:11.327Z,993.86
2017-06-28T05:44:20.977Z,993.81
2017-06-28T05:45:31.201Z,993.85
2017-06-28T05:46:41.424Z,993.82
2017-06-28T05:47:51.731Z,993.81
2017-06-28T05:49:01.360Z,993.83
2017-06-28T05:50:11.959Z,993.86
2017-06-28T05:51:21.581Z,993.83
2017-06-28T05:52:31.518Z,993.82
2017-06-28T05:53:41.962Z,993.84
2017-06-28T05:54:51.564Z,993.85
2017-06-28T05:56:01.783Z,993.88
2017-06-28T05:57:12.396Z,993.8
2017-06-28T05:58:22.615Z,993.79
2017-06-28T05:59:32.113Z,993.77
2017-06-28T06:00:42.024Z,993.75
2017-06-28T06:01:51.628Z,993.71
2017-06-28T06:03:01.240Z,993.69
2017-06-28T06:04:10.964Z,993.66
2017-06-28T06:05:21.497Z,993.65
2017-06-28T06:06:31.701Z,993.64
2017-06-28T06:07:41.611Z,993.71
2017-06-28T06:08:51.827Z,993.75
2017-06-28T06:10:01.446Z,993.74
2017-06-28T06:11:11.367Z,993.72
2017-06-28T06:12:21.600Z,993.74
2017-06-28T06:13:31.232Z,993.72
2017-06-28T06:14:41.154Z,993.68
2017-06-28T06:15:51.063Z,993.67
2017-06-28T06:17:00.380Z,993.64
2017-06-28T06:18:09.978Z,993.6
2017-06-28T06:19:19.287Z,993.63
2017-06-28T06:20:29.192Z,993.6
2017-06-28T06:21:39.456Z,993.6
2017-06-28T06:22:49.669Z,993.57
2017-06-28T06:23:58.660Z,993.57
2017-06-28T06:25:08.911Z,993.58
2017-06-28T06:26:18.835Z,993.59
2017-06-28T06:27:29.063Z,993.53
2017-06-28T06:28:39.089Z,993.54
2017-06-28T06:29:49.329Z,993.53
2017-06-28T06:30:59.262Z,993.55
2017-06-28T06:32:09.498Z,993.54
2017-06-28T06:33:19.417Z,993.52
2017-06-28T06:34:29.427Z,993.53
2017-06-28T06:35:39.362Z,993.54
2017-06-28T06:36:49.592Z,993.53
2017-06-28T06:37:59.515Z,993.49
2017-06-28T06:39:09.444Z,993.52
2017-06-28T06:40:19.667Z,993.52
2017-06-28T06:41:29.283Z,993.48
2017-06-28T06:42:39.539Z,993.53
2017-06-28T06:43:49.137Z,993.48
2017-06-28T06:44:58.447Z,993.48
2017-06-28T06:46:08.053Z,993.47
2017-06-28T06:47:17.973Z,993.47
2017-06-28T06:48:27.896Z,993.5
2017-06-28T06:49:37.829Z,993.51
2017-06-28T06:50:47.743Z,993.53
2017-06-28T06:51:58.285Z,993.53
2017-06-28T06:53:08.197Z,993.49
2017-06-28T06:54:18.135Z,993.51
2017-06-28T06:55:28.053Z,993.56
2017-06-28T06:56:37.987Z,993.52
2017-06-28T06:57:48.010Z,993.55
2017-06-28T06:58:58.239Z,993.5
2017-06-28T07:00:08.454Z,993.45
2017-06-28T07:01:18.068Z,993.46
2017-06-28T07:02:28.007Z,993.5
2017-06-28T07:03:38.492Z,993.45
2017-06-28T07:04:48.433Z,993.46
2017-06-28T07:05:57.742Z,993.47
2017-06-28T07:07:07.347Z,993.48
2017-06-28T07:08:17.244Z,993.51
2017-06-28T07:09:26.665Z,993.48
2017-06-28T07:10:36.336Z,993.56
2017-06-28T07:11:46.308Z,993.53
2017-06-28T07:12:56.214Z,993.52
2017-06-28T07:14:06.131Z,993.51
2017-06-28T07:15:16.344Z,993.52
2017-06-28T07:16:26.283Z,993.54
2017-06-28T07:17:35.583Z,993.54
2017-06-28T07:18:45.597Z,993.53
2017-06-28T07:19:55.854Z,993.55
2017-06-28T07:21:05.772Z,993.52
2017-06-28T07:22:15.686Z,993.48
2017-06-28T07:23:25.916Z,993.49
2017-06-28T07:24:35.533Z,993.49
2017-06-28T07:25:45.469Z,993.53
2017-06-28T07:26:55.186Z,993.5
2017-06-28T07:28:05.405Z,993.53
2017-06-28T07:29:15.015Z,993.49
2017-06-28T07:30:25.241Z,993.52
2017-06-28T07:31:35.454Z,993.54
2017-06-28T07:32:45.361Z,993.53
2017-06-28T07:33:55.581Z,993.56
2017-06-28T07:35:05.794Z,993.55
2017-06-28T07:36:15.735Z,993.52
2017-06-28T07:37:25.976Z,993.54
2017-06-28T07:38:36.516Z,993.56
2017-06-28T07:39:46.449Z,993.59
2017-06-28T07:40:56.672Z,993.52
2017-06-28T07:42:06.580Z,993.52
2017-06-28T07:43:16.528Z,993.54
2017-06-28T07:44:26.617Z,993.56
2017-06-28T07:45:36.218Z,993.46
2017-06-28T07:46:45.835Z,993.49
2017-06-28T07:47:56.058Z,993.5
2017-06-28T07:49:06.325Z,993.5
2017-06-28T07:50:16.936Z,993.52
2017-06-28T07:51:27.040Z,993.47
2017-06-28T07:52:36.982Z,993.5
2017-06-28T07:53:47.214Z,993.49
2017-06-28T07:54:57.153Z,993.47
2017-06-28T07:56:07.892Z,993.47
2017-06-28T07:57:17.787Z,993.45
2017-06-28T07:58:27.393Z,993.41
2017-06-28T07:59:37.295Z,993.4
2017-06-28T08:00:47.215Z,993.44
2017-06-28T08:01:57.590Z,993.41
2017-06-28T08:03:07.514Z,993.44
2017-06-28T08:04:17.430Z,993.46
2017-06-28T08:05:27.041Z,993.49
2017-06-28T08:06:37.258Z,993.49
2017-06-28T08:07:47.471Z,993.51
2017-06-28T08:08:56.774Z,993.52
2017-06-28T08:10:06.696Z,993.52
2017-06-28T08:11:16.605Z,993.51
2017-06-28T08:12:26.222Z,993.49
2017-06-28T08:13:36.190Z,993.48
2017-06-28T08:14:46.425Z,993.45
2017-06-28T08:15:56.672Z,993.38
2017-06-28T08:17:06.587Z,993.42
2017-06-28T08:18:16.809Z,993.39
2017-06-28T08:19:26.775Z,993.36
2017-06-28T08:20:36.681Z,993.37
2017-06-28T08:21:46.901Z,993.4
2017-06-28T08:22:57.130Z,993.34
2017-06-28T08:24:06.730Z,993.34
2017-06-28T08:25:16.632Z,993.31
2017-06-28T08:26:26.846Z,993.37
2017-06-28T08:27:36.447Z,993.37
2017-06-28T08:28:46.362Z,993.37
2017-06-28T08:29:56.003Z,993.37
2017-06-28T08:31:06.248Z,993.38
2017-06-28T08:32:15.549Z,993.43
2017-06-28T08:33:24.854Z,993.42
2017-06-28T08:34:34.762Z,993.42
2017-06-28T08:35:44.976Z,993.4
2017-06-28T08:36:55.187Z,993.41
2017-06-28T08:38:04.799Z,993.32
2017-06-28T08:39:14.400Z,993.31
2017-06-28T08:40:24.652Z,993.28
2017-06-28T08:41:34.277Z,993.27
2017-06-28T08:42:43.978Z,993.32
2017-06-28T08:43:53.880Z,993.33
2017-06-28T08:45:03.850Z,993.26
2017-06-28T08:46:14.062Z,993.32
2017-06-28T08:47:23.665Z,993.31
2017-06-28T08:48:33.368Z,993.27
2017-06-28T08:49:43.592Z,993.25
2017-06-28T08:50:53.806Z,993.26
2017-06-28T08:52:03.742Z,993.24
2017-06-28T08:53:13.045Z,993.24
2017-06-28T08:54:23.306Z,993.22
2017-06-28T08:55:32.906Z,993.17
2017-06-28T08:56:42.819Z,993.16
2017-06-28T08:57:52.120Z,993.13
2017-06-28T08:59:01.715Z,993.09
2017-06-28T09:00:11.363Z,993.08
2017-06-28T09:01:21.583Z,993.05
2017-06-28T09:02:31.512Z,993.03
2017-06-28T09:03:41.430Z,993.04
2017-06-28T09:04:51.053Z,992.99
2017-06-28T09:06:01.172Z,993.01
2017-06-28T09:07:11.432Z,993.02
2017-06-28T09:08:20.744Z,992.96
2017-06-28T09:09:30.985Z,992.97
2017-06-28T09:10:41.202Z,992.96
2017-06-28T09:11:51.315Z,993
2017-06-28T09:13:01.241Z,992.97
2017-06-28T09:14:11.151Z,992.96
2017-06-28T09:15:20.771Z,992.96
2017-06-28T09:16:30.379Z,992.95
2017-06-28T09:17:40.407Z,992.88
2017-06-28T09:18:50.634Z,992.92
2017-06-28T09:20:00.228Z,992.9
2017-06-28T09:21:09.834Z,992.9
2017-06-28T09:22:20.045Z,992.85
2017-06-28T09:23:30.064Z,992.85
2017-06-28T09:24:39.975Z,992.83
2017-06-28T09:25:49.572Z,992.82
2017-06-28T09:26:59.484Z,992.84
2017-06-28T09:28:09.403Z,992.86
2017-06-28T09:29:19.825Z,992.87
2017-06-28T09:30:29.738Z,992.83
2017-06-28T09:31:39.950Z,992.84
2017-06-28T09:32:49.871Z,992.87
2017-06-28T09:33:59.784Z,992.86
2017-06-28T09:35:10.106Z,992.83
2017-06-28T09:36:19.736Z,992.82
2017-06-28T09:37:29.649Z,992.85
2017-06-28T09:38:39.869Z,992.82
2017-06-28T09:39:49.477Z,992.82
2017-06-28T09:40:59.398Z,992.84
2017-06-28T09:42:09.619Z,992.8
2017-06-28T09:43:19.832Z,992.84
2017-06-28T09:44:29.747Z,992.81
2017-06-28T09:45:39.349Z,992.83
2017-06-28T09:46:49.278Z,992.83
2017-06-28T09:47:59.554Z,992.76
2017-06-28T09:49:08.900Z,992.82
2017-06-28T09:50:18.825Z,992.8
2017-06-28T09:51:28.740Z,992.74
2017-06-28T09:52:38.638Z,992.76
2017-06-28T09:53:48.538Z,992.71
2017-06-28T09:54:58.181Z,992.75
2017-06-28T09:56:08.401Z,992.74
2017-06-28T09:57:18.330Z,992.78
2017-06-28T09:58:28.592Z,992.8
2017-06-28T09:59:38.218Z,992.76
2017-06-28T10:00:48.458Z,992.73
2017-06-28T10:01:58.676Z,992.77
2017-06-28T10:03:08.296Z,992.71
2017-06-28T10:04:17.644Z,992.75
2017-06-28T10:05:27.869Z,992.69
2017-06-28T10:06:37.780Z,992.68
2017-06-28T10:07:47.405Z,992.67
2017-06-28T10:08:57.329Z,992.65
2017-06-28T10:10:07.554Z,992.66
2017-06-28T10:11:16.852Z,992.64
2017-06-28T10:12:27.067Z,992.62
2017-06-28T10:13:36.390Z,992.58
2017-06-28T10:14:46.011Z,992.61
2017-06-28T10:15:56.005Z,992.65
2017-06-28T10:17:05.927Z,992.61
2017-06-28T10:18:15.248Z,992.59
2017-06-28T10:19:24.877Z,992.6
2017-06-28T10:20:34.806Z,992.59
2017-06-28T10:21:45.129Z,992.58
2017-06-28T10:22:55.367Z,992.59
2017-06-28T10:24:05.293Z,992.57
2017-06-28T10:25:14.919Z,992.6
2017-06-28T10:26:25.136Z,992.58
2017-06-28T10:27:35.156Z,992.61
2017-06-28T10:28:45.069Z,992.58
2017-06-28T10:29:54.996Z,992.54
2017-06-28T10:31:05.220Z,992.6
2017-06-28T10:32:15.134Z,992.61
2017-06-28T10:33:25.460Z,992.59
2017-06-28T10:34:35.687Z,992.55
2017-06-28T10:35:45.296Z,992.53
2017-06-28T10:36:55.198Z,992.55
2017-06-28T10:38:05.423Z,992.54
2017-06-28T10:39:15.342Z,992.52
2017-06-28T10:40:25.611Z,992.51
2017-06-28T10:41:35.544Z,992.47
2017-06-28T10:42:45.486Z,992.46
2017-06-28T10:43:55.401Z,992.45
2017-06-28T10:45:05.317Z,992.42
2017-06-28T10:46:15.246Z,992.33
2017-06-28T10:47:25.449Z,992.36
2017-06-28T10:48:35.369Z,992.37
2017-06-28T10:49:45.285Z,992.38
2017-06-28T10:50:54.894Z,992.35
2017-06-28T10:52:05.123Z,992.38
2017-06-28T10:53:15.048Z,992.37
2017-06-28T10:54:25.269Z,992.37
2017-06-28T10:55:35.170Z,992.36
2017-06-28T10:56:45.187Z,992.33
2017-06-28T10:57:54.809Z,992.3
2017-06-28T10:59:05.028Z,992.33
2017-06-28T11:00:14.628Z,992.32
2017-06-28T11:01:24.536Z,992.36
2017-06-28T11:02:34.789Z,992.37
2017-06-28T11:03:44.739Z,992.34
2017-06-28T11:04:54.385Z,992.32
2017-06-28T11:06:04.320Z,992.27
2017-06-28T11:07:14.543Z,992.25
2017-06-28T11:08:24.504Z,992.24
2017-06-28T11:09:34.748Z,992.24
2017-06-28T11:10:44.961Z,992.24
2017-06-28T11:11:54.570Z,992.21
2017-06-28T11:13:04.791Z,992.2
2017-06-28T11:14:15.073Z,992.14
2017-06-28T11:15:25.299Z,992.16
2017-06-28T11:16:35.546Z,992.1
2017-06-28T11:17:45.470Z,992.11
2017-06-28T11:18:55.111Z,992.1
2017-06-28T11:20:05.140Z,992.1
2017-06-28T11:21:14.775Z,992.06
2017-06-28T11:22:24.098Z,992.07
2017-06-28T11:23:34.018Z,992.05
2017-06-28T11:24:43.624Z,992.04
2017-06-28T11:25:54.208Z,992.01
2017-06-28T11:27:04.152Z,992.05
2017-06-28T11:28:14.088Z,992.03
2017-06-28T11:29:23.704Z,992.06
2017-06-28T11:30:33.928Z,991.98
2017-06-28T11:31:43.339Z,991.99
2017-06-28T11:32:53.577Z,991.99
2017-06-28T11:34:03.503Z,992.01
2017-06-28T11:35:13.468Z,991.94
2017-06-28T11:36:23.700Z,991.95
2017-06-28T11:37:33.732Z,991.93
2017-06-28T11:38:43.947Z,991.97
2017-06-28T11:39:53.609Z,991.93
2017-06-28T11:41:03.519Z,991.95
2017-06-28T11:42:13.757Z,991.91
2017-06-28T11:43:24.189Z,991.89
2017-06-28T11:44:34.409Z,991.87
2017-06-28T11:45:44.631Z,991.85
2017-06-28T11:46:54.542Z,991.89
2017-06-28T11:48:04.145Z,991.86
2017-06-28T11:49:14.074Z,991.87
2017-06-28T11:50:23.998Z,991.83
2017-06-28T11:51:32.677Z,991.88
2017-06-28T11:52:42.589Z,991.94
2017-06-28T11:53:52.199Z,991.92
2017-06-28T11:55:02.226Z,991.93
2017-06-28T11:56:12.148Z,992.02
2017-06-28T11:57:22.361Z,992.02
2017-06-28T11:58:32.285Z,992.03
2017-06-28T11:59:41.890Z,992.05
2017-06-28T12:00:52.017Z,992.15
2017-06-28T12:02:01.927Z,992.36
2017-06-28T12:03:12.142Z,992.36
2017-06-28T12:04:21.434Z,992.46
2017-06-28T12:05:31.353Z,992.52
2017-06-28T12:06:41.479Z,992.56
2017-06-28T12:07:51.087Z,992.55
2017-06-28T12:09:00.991Z,992.64
2017-06-28T12:10:10.932Z,992.65
2017-06-28T12:11:21.150Z,992.63
2017-06-28T12:12:31.419Z,992.67
2017-06-28T12:13:41.023Z,992.67
2017-06-28T12:14:50.950Z,992.7
2017-06-28T12:16:00.557Z,992.72
2017-06-28T12:17:10.467Z,992.66
2017-06-28T12:18:20.787Z,992.71
2017-06-28T12:19:30.708Z,992.7
2017-06-28T12:20:40.960Z,992.65
2017-06-28T12:21:50.897Z,992.69
2017-06-28T12:23:00.507Z,992.73
2017-06-28T12:24:10.108Z,992.69
2017-06-28T12:25:20.336Z,992.71
2017-06-28T12:26:30.546Z,992.71
2017-06-28T12:27:40.164Z,992.73
2017-06-28T12:28:50.070Z,992.67
2017-06-28T12:29:59.485Z,992.69
2017-06-28T12:31:09.086Z,992.72
2017-06-28T12:32:19.323Z,992.66
2017-06-28T12:33:29.238Z,992.71
2017-06-28T12:34:38.845Z,992.66
2017-06-28T12:35:49.177Z,992.67
2017-06-28T12:36:58.778Z,992.68
2017-06-28T12:38:08.760Z,992.67
2017-06-28T12:39:18.681Z,992.65
2017-06-28T12:40:28.009Z,992.67
2017-06-28T12:41:37.997Z,992.64
2017-06-28T12:42:47.905Z,992.6
2017-06-28T12:43:57.819Z,992.61
2017-06-28T12:45:07.454Z,992.56
2017-06-28T12:46:17.056Z,992.59
2017-06-28T12:47:27.013Z,992.59
2017-06-28T12:48:36.970Z,992.56
2017-06-28T12:49:46.587Z,992.6
2017-06-28T12:50:56.505Z,992.63
2017-06-28T12:52:06.722Z,992.65
2017-06-28T12:53:16.008Z,992.67
2017-06-28T12:54:25.929Z,992.66
2017-06-28T12:55:35.562Z,992.66
2017-06-28T12:56:45.783Z,992.63
2017-06-28T12:57:55.713Z,992.61
2017-06-28T12:59:06.084Z,992.58
2017-06-28T13:00:16.000Z,992.56
2017-06-28T13:01:26.260Z,992.54
2017-06-28T13:02:36.474Z,992.49
2017-06-28T13:03:46.404Z,992.49
2017-06-28T13:04:56.327Z,992.48
2017-06-28T13:06:05.631Z,992.51
2017-06-28T13:07:14.625Z,992.51
2017-06-28T13:08:24.848Z,992.51
2017-06-28T13:09:34.518Z,992.5
2017-06-28T13:10:44.489Z,992.46
2017-06-28T13:11:54.098Z,992.49
2017-06-28T13:13:03.711Z,992.52
2017-06-28T13:14:13.610Z,992.52
2017-06-28T13:15:23.836Z,992.51
2017-06-28T13:16:33.796Z,992.56
2017-06-28T13:17:44.016Z,992.55
2017-06-28T13:18:53.935Z,992.52
2017-06-28T13:20:03.840Z,992.53
2017-06-28T13:21:14.052Z,992.54
2017-06-28T13:22:24.011Z,992.5
2017-06-28T13:23:34.226Z,992.54
2017-06-28T13:24:44.145Z,992.54
2017-06-28T13:25:54.391Z,992.56
2017-06-28T13:27:04.347Z,992.55
2017-06-28T13:28:13.993Z,992.55
2017-06-28T13:29:23.911Z,992.56
2017-06-28T13:30:33.847Z,992.52
2017-06-28T13:31:43.154Z,992.54
2017-06-28T13:32:53.072Z,992.55
2017-06-28T13:34:03.387Z,992.5
2017-06-28T13:35:13.305Z,992.55
2017-06-28T13:36:23.211Z,992.54
2017-06-28T13:37:33.115Z,992.57
2017-06-28T13:38:43.040Z,992.51
2017-06-28T13:39:52.653Z,992.59
2017-06-28T13:41:02.309Z,992.55
2017-06-28T13:42:11.608Z,992.52
2017-06-28T13:43:21.209Z,992.49
2017-06-28T13:44:30.825Z,992.45
2017-06-28T13:45:40.482Z,992.42
2017-06-28T13:46:50.103Z,992.4
2017-06-28T13:48:00.019Z,992.35
2017-06-28T13:49:09.957Z,992.35
2017-06-28T13:50:19.874Z,992.33
2017-06-28T13:51:29.905Z,992.31
2017-06-28T13:52:39.527Z,992.29
2017-06-28T13:53:49.752Z,992.23
2017-06-28T13:54:59.351Z,992.18
2017-06-28T13:56:08.950Z,992.17
2017-06-28T13:57:18.973Z,992.17
2017-06-28T13:58:28.903Z,992.16
2017-06-28T13:59:38.823Z,992.12
2017-06-28T14:00:48.160Z,992.17
2017-06-28T14:01:58.388Z,992.08
2017-06-28T14:03:08.615Z,992.04
2017-06-28T14:04:18.543Z,992.05
2017-06-28T14:05:28.476Z,992.02
2017-06-28T14:06:38.712Z,991.99
2017-06-28T14:07:48.673Z,991.99
2017-06-28T14:08:59.042Z,991.99
2017-06-28T14:10:08.949Z,992.04
2017-06-28T14:11:19.184Z,992.02
2017-06-28T14:12:29.102Z,992.06
2017-06-28T14:13:39.326Z,992.11
2017-06-28T14:14:49.288Z,992.11
2017-06-28T14:15:58.931Z,992.16
2017-06-28T14:17:08.548Z,992.17
2017-06-28T14:18:18.507Z,992.24
2017-06-28T14:19:28.115Z,992.19
2017-06-28T14:20:38.127Z,992.12
2017-06-28T14:21:47.734Z,992.11
2017-06-28T14:22:57.654Z,992.05
2017-06-28T14:24:07.579Z,992.02
2017-06-28T14:25:17.804Z,992
2017-06-28T14:26:28.131Z,992
2017-06-28T14:27:38.348Z,992
2017-06-28T14:28:48.286Z,992.02
2017-06-28T14:29:57.909Z,992.09
2017-06-28T14:31:07.833Z,992.09
2017-06-28T14:32:17.542Z,992.07
2017-06-28T14:33:27.150Z,992.05
2017-06-28T14:34:36.756Z,991.99
2017-06-28T14:35:46.984Z,992.04
2017-06-28T14:36:56.894Z,992